Time;durP1;ratioP1;P1;durP2;ratioP2;P2;SDS_P1;SDS_P2;PMS_P1;PMS_P2;Temp;Humidity;BMP_temperature;BMP_pressure;BME280_temperature;BME280_humidity;BME280_pressure;Samples;Min_cycle;Max_cycle;Signal;HPM_P1;HPM_P2
2024/02/07 00:02:06;;;;;;;2.22;1.70;;;4.50;99.90;;;;;;5045781;28;20033;-40
2024/02/07 00:04:31;;;;;;;1.60;1.50;;;4.50;99.90;;;;;;5045177;28;20054;-40
2024/02/07 00:06:57;;;;;;;2.15;1.95;;;4.50;99.90;;;;;;5044110;28;20168;-41
2024/02/07 00:09:23;;;;;;;2.92;1.67;;;4.50;99.90;;;;;;5046613;28;20054;-39
2024/02/07 00:11:48;;;;;;;2.28;2.03;;;4.50;99.90;;;;;;5041443;28;20033;-39
2024/02/07 00:14:14;;;;;;;1.80;1.67;;;4.50;99.90;;;;;;5042506;28;20043;-39
2024/02/07 00:16:39;;;;;;;3.65;1.48;;;4.50;99.90;;;;;;5043094;28;20029;-41
2024/02/07 00:19:05;;;;;;;2.85;1.70;;;4.40;99.90;;;;;;5043229;28;20075;-40
2024/02/07 00:21:30;;;;;;;1.70;1.60;;;4.50;99.90;;;;;;5025184;28;20039;-39
2024/02/07 00:23:56;;;;;;;2.38;1.85;;;4.40;99.90;;;;;;5040977;28;20036;-39
2024/02/07 00:26:22;;;;;;;2.20;2.00;;;4.40;99.90;;;;;;5041999;28;20428;-38
2024/02/07 00:28:49;;;;;;;4.10;1.83;;;4.40;99.90;;;;;;5045242;28;20041;-41
2024/02/07 00:31:14;;;;;;;3.05;1.88;;;4.50;99.90;;;;;;5043942;28;20242;-37
2024/02/07 00:33:40;;;;;;;4.15;1.75;;;4.40;99.90;;;;;;5057534;28;20048;-40
2024/02/07 00:36:06;;;;;;;1.60;1.33;;;4.50;99.90;;;;;;5042732;28;20036;-40
2024/02/07 00:38:32;;;;;;;2.65;2.00;;;4.50;99.90;;;;;;5044251;28;20040;-41
2024/02/07 00:40:58;;;;;;;2.25;1.55;;;4.50;99.90;;;;;;5046048;28;20037;-42
2024/02/07 00:43:23;;;;;;;1.88;1.70;;;4.40;99.90;;;;;;5045592;28;20040;-39
2024/02/07 00:45:49;;;;;;;2.03;1.60;;;4.40;99.90;;;;;;5043838;28;20029;-42
2024/02/07 00:48:15;;;;;;;2.22;1.52;;;4.40;99.90;;;;;;5041199;28;20053;-39
2024/02/07 00:50:40;;;;;;;2.65;1.73;;;4.40;99.90;;;;;;5043268;28;20394;-38
2024/02/07 00:53:06;;;;;;;1.77;1.27;;;4.50;99.90;;;;;;5027084;28;20398;-39
2024/02/07 00:55:32;;;;;;;1.60;1.33;;;4.50;99.90;;;;;;5043956;28;20313;-40
2024/02/07 00:57:57;;;;;;;1.50;1.40;;;4.50;99.90;;;;;;5046122;28;20044;-40
2024/02/07 01:00:24;;;;;;;1.52;1.42;;;4.50;99.90;;;;;;5047208;28;20068;-41
2024/02/07 01:02:51;;;;;;;1.85;1.70;;;4.50;99.90;;;;;;5043372;28;20044;-42
2024/02/07 01:05:17;;;;;;;2.25;1.75;;;4.50;99.90;;;;;;5042938;28;20526;-38
2024/02/07 01:07:43;;;;;;;2.05;1.80;;;4.50;99.90;;;;;;5037683;28;20090;-41
2024/02/07 01:10:10;;;;;;;1.35;1.25;;;4.50;99.90;;;;;;5037719;28;20483;-37
2024/02/07 01:12:36;;;;;;;1.83;1.70;;;4.60;99.90;;;;;;5042676;28;20162;-41
2024/02/07 01:15:01;;;;;;;2.83;1.90;;;4.60;99.90;;;;;;5046135;28;20147;-41
2024/02/07 01:17:27;;;;;;;2.10;1.90;;;4.60;99.90;;;;;;5032332;28;20032;-42
2024/02/07 01:19:54;;;;;;;3.47;1.77;;;4.60;99.90;;;;;;5045103;28;20738;-36
2024/02/07 01:22:19;;;;;;;2.85;1.95;;;4.60;99.90;;;;;;5044558;28;20051;-39
2024/02/07 01:24:45;;;;;;;1.80;1.50;;;4.70;99.90;;;;;;5048831;28;20498;-40
2024/02/07 01:27:10;;;;;;;2.83;1.58;;;4.70;99.90;;;;;;5048965;28;20036;-39
2024/02/07 01:29:37;;;;;;;2.20;1.90;;;4.70;99.90;;;;;;5045828;28;20483;-40
2024/02/07 01:32:04;;;;;;;2.17;1.77;;;4.70;99.90;;;;;;5040441;28;20040;-42
2024/02/07 01:34:30;;;;;;;2.83;1.70;;;4.80;99.90;;;;;;5045852;28;20047;-40
2024/02/07 01:36:55;;;;;;;2.40;1.13;;;4.80;99.90;;;;;;5044322;28;20029;-39
2024/02/07 01:39:23;;;;;;;3.83;1.45;;;4.80;99.90;;;;;;5045837;28;20033;-42
2024/02/07 01:41:57;;;;;;;4.97;1.95;;;4.80;99.90;;;;;;5043109;28;20486;-42
2024/02/07 01:44:24;;;;;;;1.48;1.23;;;4.80;99.90;;;;;;5045547;28;20493;-42
2024/02/07 01:46:51;;;;;;;3.70;2.08;;;4.80;99.90;;;;;;5042515;28;20374;-41
2024/02/07 01:49:18;;;;;;;1.90;1.70;;;4.90;99.90;;;;;;5042914;28;20086;-35
2024/02/07 01:51:46;;;;;;;2.25;1.58;;;4.90;99.90;;;;;;5041839;28;20112;-40
2024/02/07 01:54:12;;;;;;;2.75;1.80;;;4.90;99.90;;;;;;5043445;28;20036;-41
2024/02/07 01:56:38;;;;;;;2.63;2.20;;;4.90;99.90;;;;;;5038079;28;20033;-39
2024/02/07 01:59:05;;;;;;;4.70;2.28;;;4.90;99.90;;;;;;5043415;28;20053;-40
2024/02/07 02:01:33;;;;;;;1.02;1.02;;;4.90;99.90;;;;;;5028670;28;20041;-41
2024/02/07 02:03:59;;;;;;;2.35;1.67;;;4.80;99.90;;;;;;5044331;28;20076;-36
2024/02/07 02:06:25;;;;;;;1.88;1.77;;;4.80;99.90;;;;;;5046502;28;20060;-40
2024/02/07 02:08:52;;;;;;;2.28;1.88;;;4.90;99.90;;;;;;5049332;28;20021;-34
2024/02/07 02:11:26;;;;;;;1.92;1.60;;;4.90;99.90;;;;;;5040373;28;20025;-40
2024/02/07 02:13:54;;;;;;;6.85;1.92;;;4.90;99.90;;;;;;5048087;28;20043;-37
2024/02/07 02:16:19;;;;;;;3.42;2.30;;;4.90;99.90;;;;;;5042777;28;20041;-40
2024/02/07 02:18:46;;;;;;;2.33;2.13;;;4.90;99.90;;;;;;5046377;28;20406;-40
2024/02/07 02:21:19;;;;;;;7.20;4.97;;;4.90;99.90;;;;;;5041653;28;20797;-41
2024/02/07 02:24:11;;;;;;;1.73;1.63;;;4.90;99.90;;;;;;5046645;28;20111;-40
2024/02/07 02:27:07;;;;;;;2.53;2.15;;;4.90;99.90;;;;;;5041389;28;20041;-41
2024/02/07 02:29:40;;;;;;;2.22;2.03;;;4.90;99.90;;;;;;5019594;28;20033;-40
2024/02/07 02:32:08;;;;;;;4.95;2.47;;;4.90;99.90;;;;;;5037277;28;20434;-38
2024/02/07 02:34:36;;;;;;;4.72;2.58;;;4.90;99.90;;;;;;5047777;28;20040;-36
2024/02/07 02:37:02;;;;;;;3.38;2.10;;;4.90;99.90;;;;;;5041625;28;20036;-40
2024/02/07 02:39:29;;;;;;;2.63;2.17;;;4.90;99.90;;;;;;5043391;28;20414;-38
2024/02/07 02:41:55;;;;;;;5.20;2.25;;;4.90;99.90;;;;;;5041155;28;20040;-40
2024/02/07 02:44:23;;;;;;;2.63;2.30;;;4.90;99.90;;;;;;5045308;28;20033;-39
2024/02/07 02:46:49;;;;;;;2.00;1.87;;;5.00;99.90;;;;;;5046519;28;20621;-39
2024/02/07 02:49:14;;;;;;;1.77;1.67;;;4.90;99.90;;;;;;5037977;28;20044;-38
2024/02/07 02:51:40;;;;;;;2.50;2.03;;;5.00;99.90;;;;;;5037038;28;20029;-39
2024/02/07 02:54:06;;;;;;;4.60;2.22;;;5.00;99.90;;;;;;5038114;28;20041;-39
2024/02/07 02:56:33;;;;;;;4.63;2.65;;;5.00;99.90;;;;;;5044156;28;20044;-39
2024/02/07 02:59:03;;;;;;;3.53;2.45;;;5.00;99.90;;;;;;5050369;28;20563;-39
2024/02/07 03:01:29;;;;;;;5.07;2.58;;;5.00;99.90;;;;;;5058824;28;20033;-32
2024/02/07 03:03:54;;;;;;;3.00;2.60;;;4.90;99.90;;;;;;5049193;28;20033;-33
2024/02/07 03:06:29;;;;;;;5.10;2.20;;;5.00;99.90;;;;;;5044340;28;20472;-32
2024/02/07 03:09:06;;;;;;;4.47;2.60;;;5.00;99.90;;;;;;5047967;28;20145;-32
2024/02/07 03:11:33;;;;;;;2.75;2.05;;;4.90;99.90;;;;;;5049725;28;20029;-32
2024/02/07 03:14:01;;;;;;;3.58;2.40;;;5.00;99.90;;;;;;5032622;28;20363;-38
2024/02/07 03:16:28;;;;;;;2.30;2.10;;;5.00;99.90;;;;;;5045398;28;20536;-33
2024/02/07 03:18:58;;;;;;;3.50;2.17;;;5.00;99.90;;;;;;5044922;28;20033;-36
2024/02/07 03:21:26;;;;;;;3.00;2.70;;;5.00;99.90;;;;;;5045382;28;20387;-32
2024/02/07 03:23:52;;;;;;;3.00;2.25;;;5.00;99.90;;;;;;5030563;28;20032;-33
2024/02/07 03:26:19;;;;;;;2.53;2.13;;;5.00;99.90;;;;;;5042119;28;20060;-33
2024/02/07 03:28:44;;;;;;;2.80;2.50;;;5.00;99.90;;;;;;5042776;28;20033;-33
2024/02/07 03:31:10;;;;;;;4.97;2.60;;;4.90;99.90;;;;;;5041834;28;20033;-32
2024/02/07 03:33:36;;;;;;;2.95;1.95;;;5.00;99.90;;;;;;5050472;28;20441;-32
2024/02/07 03:36:02;;;;;;;2.67;2.40;;;4.90;99.90;;;;;;5044634;28;20128;-35
2024/02/07 03:38:29;;;;;;;3.47;2.50;;;5.00;99.90;;;;;;5049655;28;20082;-33
2024/02/07 03:40:55;;;;;;;3.80;2.72;;;4.90;99.90;;;;;;5042206;28;20036;-32
2024/02/07 03:43:21;;;;;;;2.72;2.13;;;5.00;99.90;;;;;;5040302;28;20045;-32
2024/02/07 03:45:46;;;;;;;5.18;2.17;;;5.10;99.90;;;;;;5049851;28;20493;-32
2024/02/07 03:48:13;;;;;;;4.22;2.50;;;5.10;99.90;;;;;;5049568;28;20034;-33
2024/02/07 03:50:40;;;;;;;3.05;2.20;;;5.20;99.90;;;;;;5049288;28;20113;-32
2024/02/07 03:53:07;;;;;;;3.17;2.00;;;5.30;99.90;;;;;;5049009;28;20083;-31
2024/02/07 03:55:35;;;;;;;5.97;2.53;;;5.30;99.90;;;;;;5053775;28;20025;-34
2024/02/07 03:58:01;;;;;;;3.17;2.35;;;5.30;99.90;;;;;;5048291;28;20733;-32
2024/02/07 04:00:27;;;;;;;4.82;2.90;;;5.40;99.90;;;;;;5042216;28;20033;-31
2024/02/07 04:02:53;;;;;;;3.05;2.30;;;5.40;99.90;;;;;;5048185;28;20094;-38
2024/02/07 04:05:19;;;;;;;4.93;2.65;;;5.50;99.90;;;;;;5046125;28;20607;-32
2024/02/07 04:07:45;;;;;;;2.78;2.05;;;5.50;99.90;;;;;;5047738;28;20025;-34
2024/02/07 04:10:13;;;;;;;6.90;2.45;;;5.60;99.90;;;;;;5040654;28;20511;-37
2024/02/07 05:15:43;;;;;;;5.30;2.58;;;5.50;99.90;;;;;;5045868;28;20036;-39
2024/02/07 05:18:09;;;;;;;7.35;2.90;;;5.50;99.90;;;;;;5045918;28;20487;-43
2024/02/07 05:20:34;;;;;;;4.85;2.88;;;5.50;99.90;;;;;;5045912;28;20577;-33
2024/02/07 05:23:00;;;;;;;3.35;2.55;;;5.50;99.90;;;;;;5045169;28;20021;-33
2024/02/07 05:25:26;;;;;;;6.72;3.30;;;5.50;99.90;;;;;;5030676;28;20052;-35
2024/02/07 05:27:52;;;;;;;4.43;2.63;;;5.50;99.90;;;;;;5022995;28;20024;-34
2024/02/07 05:30:18;;;;;;;5.20;3.75;;;5.50;99.90;;;;;;5046544;28;20025;-36
2024/02/07 05:32:44;;;;;;;4.15;3.20;;;5.50;99.90;;;;;;5046543;28;20140;-33
2024/02/07 05:35:10;;;;;;;3.50;2.30;;;5.40;99.90;;;;;;5026123;28;20398;-33
2024/02/07 05:37:37;;;;;;;7.82;3.38;;;5.40;99.90;;;;;;5046768;28;20049;-33
2024/02/07 05:40:04;;;;;;;4.47;2.88;;;5.30;99.90;;;;;;5041255;28;20032;-35
2024/02/07 05:42:30;;;;;;;5.50;3.63;;;5.30;99.90;;;;;;5024341;28;20509;-33
2024/02/07 05:44:56;;;;;;;5.20;3.80;;;5.40;99.90;;;;;;5024859;28;20057;-37
2024/02/07 05:47:22;;;;;;;5.93;4.05;;;5.40;99.90;;;;;;5017157;28;20039;-33
2024/02/07 05:49:48;;;;;;;6.28;3.80;;;5.40;99.90;;;;;;5030294;28;20021;-33
2024/02/07 05:52:15;;;;;;;4.85;3.95;;;5.40;99.90;;;;;;5026448;28;20053;-34
2024/02/07 05:54:43;;;;;;;9.68;4.03;;;5.40;99.90;;;;;;5024802;28;20075;-35
2024/02/07 05:57:09;;;;;;;5.55;3.53;;;5.40;99.90;;;;;;5037590;28;20128;-31
2024/02/07 05:59:35;;;;;;;5.82;4.00;;;5.40;99.90;;;;;;5028733;28;20036;-34
2024/02/07 06:02:04;;;;;;;5.30;3.70;;;5.50;99.90;;;;;;5027428;28;20056;-36
2024/02/07 06:04:30;;;;;;;7.65;3.63;;;5.40;99.90;;;;;;5024912;28;20032;-33
2024/02/07 06:06:57;;;;;;;4.13;3.00;;;5.50;99.90;;;;;;5039041;28;20475;-33
2024/02/07 06:09:23;;;;;;;4.28;3.50;;;5.50;99.90;;;;;;5035469;28;20569;-32
2024/02/07 06:11:52;;;;;;;6.22;2.85;;;5.50;99.90;;;;;;5037508;28;20407;-33
2024/02/07 06:14:18;;;;;;;10.80;3.35;;;5.50;99.90;;;;;;5042683;28;20520;-33
2024/02/07 06:16:44;;;;;;;3.97;2.83;;;5.50;99.90;;;;;;5025133;28;20037;-35
2024/02/07 06:19:17;;;;;;;7.57;3.60;;;5.50;99.90;;;;;;5023709;28;20064;-35
2024/02/07 06:21:44;;;;;;;9.88;4.32;;;5.40;99.90;;;;;;5026670;28;20048;-35
2024/02/07 06:24:10;;;;;;;6.38;3.83;;;5.40;99.90;;;;;;5036572;28;20632;-33
2024/02/07 06:26:36;;;;;;;7.68;2.92;;;5.40;99.90;;;;;;5018596;28;20802;-36
2024/02/07 06:29:01;;;;;;;5.30;3.50;;;5.40;99.90;;;;;;5026632;28;20074;-34
2024/02/07 06:31:27;;;;;;;4.68;3.30;;;5.30;99.90;;;;;;5039463;28;20491;-37
2024/02/07 06:33:53;;;;;;;5.40;3.85;;;5.30;99.90;;;;;;5039975;28;20060;-36
2024/02/07 06:36:19;;;;;;;3.65;2.70;;;5.30;99.90;;;;;;5019928;28;20044;-34
2024/02/07 06:38:44;;;;;;;5.50;3.30;;;5.30;99.90;;;;;;5041416;28;20098;-33
2024/02/07 06:41:10;;;;;;;7.57;3.60;;;5.30;99.90;;;;;;5041349;28;20061;-32
2024/02/07 06:43:35;;;;;;;4.70;3.50;;;5.20;99.90;;;;;;5046251;28;20832;-35
2024/02/07 06:46:04;;;;;;;5.40;3.50;;;5.30;99.90;;;;;;5047938;28;20105;-31
2024/02/07 06:48:30;;;;;;;6.07;3.40;;;5.30;99.90;;;;;;5046850;28;20071;-32
2024/02/07 06:50:55;;;;;;;9.90;4.20;;;5.30;99.90;;;;;;5043059;28;20675;-32
2024/02/07 06:53:21;;;;;;;4.32;2.90;;;5.40;99.90;;;;;;5046844;28;20024;-33
2024/02/07 06:55:47;;;;;;;4.97;3.40;;;5.50;99.90;;;;;;5039967;28;20401;-32
2024/02/07 06:58:16;;;;;;;5.20;3.45;;;5.50;99.90;;;;;;5046431;28;20037;-33
2024/02/07 07:00:42;;;;;;;4.18;3.08;;;5.50;99.90;;;;;;5049552;28;20474;-32
2024/02/07 07:03:08;;;;;;;8.50;4.32;;;5.50;99.90;;;;;;5032160;28;20061;-32
2024/02/07 07:05:34;;;;;;;6.82;3.38;;;5.50;99.90;;;;;;5032265;28;20060;-33
2024/02/07 07:08:00;;;;;;;8.27;4.07;;;5.40;99.90;;;;;;5030452;28;20017;-32
2024/02/07 07:10:26;;;;;;;5.35;3.00;;;5.40;99.90;;;;;;5054138;28;20390;-32
2024/02/07 07:12:53;;;;;;;6.15;3.28;;;5.50;99.90;;;;;;5048594;28;20033;-34
2024/02/07 07:15:20;;;;;;;5.22;3.08;;;5.50;99.90;;;;;;5030649;28;20100;-32
2024/02/07 07:17:46;;;;;;;7.15;4.20;;;5.50;99.90;;;;;;5022967;28;20116;-34
2024/02/07 07:20:13;;;;;;;6.00;3.40;;;5.60;99.90;;;;;;5039656;28;20107;-32
2024/02/07 07:22:42;;;;;;;6.72;3.65;;;5.60;99.90;;;;;;5034675;28;20510;-32
2024/02/07 07:25:08;;;;;;;5.30;3.72;;;5.70;99.90;;;;;;5048091;28;20032;-31
2024/02/07 07:27:33;;;;;;;6.60;3.80;;;5.80;99.90;;;;;;5030435;28;20064;-32
2024/02/07 07:29:59;;;;;;;5.38;2.90;;;5.70;99.90;;;;;;5055885;28;20055;-36
2024/02/07 07:32:25;;;;;;;6.85;3.28;;;5.80;99.90;;;;;;5019219;28;20649;-36
2024/02/07 07:34:53;;;;;;;5.45;3.50;;;5.80;99.90;;;;;;5047832;28;20082;-34
2024/02/07 07:37:20;;;;;;;5.05;3.42;;;5.90;99.90;;;;;;5037279;28;20570;-32
2024/02/07 07:39:45;;;;;;;4.70;2.83;;;6.00;99.90;;;;;;5046125;28;20037;-39
2024/02/07 07:42:11;;;;;;;4.22;3.20;;;6.00;99.90;;;;;;5043817;28;20037;-42
2024/02/07 07:44:38;;;;;;;5.00;2.90;;;6.00;99.90;;;;;;5047061;28;20091;-39
2024/02/07 07:47:04;;;;;;;3.75;2.90;;;6.00;99.90;;;;;;5038973;28;20022;-38
2024/02/07 07:49:29;;;;;;;4.00;2.72;;;6.00;99.90;;;;;;5046141;28;20025;-42
2024/02/07 07:51:55;;;;;;;4.05;3.00;;;6.00;99.90;;;;;;5044264;28;20032;-39
2024/02/07 07:54:21;;;;;;;4.03;3.13;;;6.00;99.90;;;;;;5044631;28;20056;-40
2024/02/07 07:56:46;;;;;;;4.95;3.30;;;6.10;99.90;;;;;;5043078;28;20055;-39
2024/02/07 07:59:13;;;;;;;5.85;3.30;;;6.10;99.90;;;;;;5045013;28;20104;-37
2024/02/07 08:01:38;;;;;;;6.65;2.97;;;6.20;99.90;;;;;;5041612;28;20168;-38
2024/02/07 08:04:04;;;;;;;6.43;3.33;;;6.20;99.90;;;;;;5045330;28;20047;-39
2024/02/07 08:06:29;;;;;;;2.63;2.40;;;6.20;99.90;;;;;;5046497;28;20028;-38
2024/02/07 08:08:55;;;;;;;4.43;3.28;;;6.20;99.90;;;;;;5047566;28;20040;-36
2024/02/07 08:11:21;;;;;;;6.55;2.90;;;6.30;99.90;;;;;;5038454;28;20022;-36
2024/02/07 08:13:47;;;;;;;4.32;2.78;;;6.30;99.90;;;;;;5024871;28;20063;-38
2024/02/07 08:16:13;;;;;;;5.40;2.70;;;6.40;99.90;;;;;;5045062;28;20033;-38
2024/02/07 08:18:39;;;;;;;5.82;3.45;;;6.50;99.90;;;;;;5043920;28;20035;-37
2024/02/07 08:21:05;;;;;;;4.88;2.60;;;6.60;99.90;;;;;;5042574;28;20037;-36
2024/02/07 08:23:31;;;;;;;4.55;2.92;;;6.60;99.90;;;;;;5047046;28;20017;-36
2024/02/07 08:25:57;;;;;;;5.82;2.85;;;6.70;99.90;;;;;;5045937;28;20033;-37
2024/02/07 08:28:22;;;;;;;3.58;2.50;;;6.70;99.90;;;;;;5043090;28;20074;-38
2024/02/07 08:30:48;;;;;;;3.20;2.42;;;6.80;99.90;;;;;;5044437;28;20033;-36
2024/02/07 08:33:14;;;;;;;3.90;2.58;;;6.90;99.90;;;;;;5037730;28;20115;-35
2024/02/07 08:35:40;;;;;;;4.88;2.45;;;6.90;99.90;;;;;;5044759;28;20048;-39
2024/02/07 08:38:05;;;;;;;4.10;2.35;;;7.00;99.90;;;;;;5045716;28;20033;-35
2024/02/07 08:40:31;;;;;;;5.72;2.35;;;7.10;99.90;;;;;;5043937;28;20036;-36
2024/02/07 08:42:58;;;;;;;3.17;2.33;;;7.20;99.90;;;;;;5031248;28;20294;-39
2024/02/07 08:45:24;;;;;;;3.25;1.83;;;7.40;99.90;;;;;;5030455;28;20115;-35
2024/02/07 08:47:50;;;;;;;6.43;2.42;;;7.50;99.90;;;;;;5049748;28;20027;-39
2024/02/07 08:50:17;;;;;;;5.70;2.47;;;7.60;99.90;;;;;;5039024;28;20479;-33
2024/02/07 08:52:45;;;;;;;2.35;1.70;;;7.80;99.90;;;;;;5018621;28;20016;-34
2024/02/07 08:55:11;;;;;;;3.38;2.20;;;7.90;99.90;;;;;;5030705;28;20576;-33
2024/02/07 08:57:39;;;;;;;2.20;2.00;;;8.00;99.90;;;;;;5047550;28;20063;-33
2024/02/07 09:00:08;;;;;;;2.20;1.40;;;8.20;99.90;;;;;;5044187;28;20024;-35
2024/02/07 09:02:34;;;;;;;5.63;2.50;;;8.30;99.90;;;;;;5025059;28;20040;-34
2024/02/07 09:05:06;;;;;;;7.53;2.83;;;8.40;99.90;;;;;;5029388;28;20020;-36
2024/02/07 09:07:32;;;;;;;3.03;2.22;;;8.40;99.90;;;;;;5031715;28;20025;-36
2024/02/07 09:09:59;;;;;;;4.05;2.33;;;8.40;99.90;;;;;;5021185;28;20494;-34
2024/02/07 09:12:25;;;;;;;5.43;2.50;;;8.40;99.90;;;;;;5040886;28;20032;-34
2024/02/07 09:14:51;;;;;;;2.70;1.83;;;8.40;99.90;;;;;;5042043;28;20025;-34
2024/02/07 09:17:17;;;;;;;4.60;2.30;;;8.50;99.90;;;;;;5026009;28;20032;-34
2024/02/07 09:19:43;;;;;;;2.72;2.13;;;8.50;99.90;;;;;;5031974;28;20020;-35
2024/02/07 09:22:09;;;;;;;3.03;2.50;;;8.60;99.90;;;;;;5028719;28;20131;-33
2024/02/07 09:24:35;;;;;;;1.98;1.73;;;8.60;99.90;;;;;;5043726;28;20056;-36
2024/02/07 09:27:01;;;;;;;3.88;2.10;;;8.50;99.90;;;;;;5048578;28;20025;-34
2024/02/07 09:29:27;;;;;;;3.55;2.45;;;8.50;99.90;;;;;;5029417;28;20029;-33
2024/02/07 09:31:53;;;;;;;2.30;2.10;;;8.50;99.90;;;;;;5044377;28;20025;-35
2024/02/07 09:34:19;;;;;;;4.72;2.50;;;8.50;99.90;;;;;;5039621;28;20115;-33
2024/02/07 09:36:45;;;;;;;2.78;2.47;;;8.50;99.90;;;;;;5033415;28;20033;-36
2024/02/07 09:39:14;;;;;;;4.25;2.55;;;8.60;99.90;;;;;;5020628;28;20589;-34
2024/02/07 09:41:43;;;;;;;2.97;1.80;;;8.60;99.90;;;;;;5026071;28;20060;-34
2024/02/07 09:44:14;;;;;;;2.85;2.10;;;8.70;99.90;;;;;;5043272;28;20041;-33
2024/02/07 09:46:43;;;;;;;4.70;2.30;;;8.80;99.90;;;;;;5060059;28;20024;-35
2024/02/07 09:49:14;;;;;;;5.00;2.28;;;9.00;99.90;;;;;;5021575;28;20025;-33
2024/02/07 09:51:41;;;;;;;3.80;2.83;;;9.20;99.90;;;;;;5020774;28;20028;-35
2024/02/07 09:54:11;;;;;;;2.40;2.20;;;9.30;99.90;;;;;;5030819;28;20364;-32
2024/02/07 09:56:45;;;;;;;3.65;2.03;;;9.50;99.90;;;;;;5043214;28;20071;-35
2024/02/07 09:59:12;;;;;;;3.53;2.30;;;9.60;99.90;;;;;;5026292;28;20033;-35
2024/02/07 10:01:39;;;;;;;4.40;2.63;;;9.60;99.90;;;;;;5058765;28;20071;-41
2024/02/07 10:04:13;;;;;;;2.17;1.95;;;9.70;99.90;;;;;;5046163;28;20098;-40
2024/02/07 10:06:39;;;;;;;2.45;1.70;;;9.70;99.90;;;;;;5044316;28;20067;-41
2024/02/07 10:09:07;;;;;;;3.05;2.25;;;9.80;99.90;;;;;;5042611;28;20056;-41
2024/02/07 10:11:33;;;;;;;3.95;2.42;;;9.80;99.90;;;;;;5042293;28;20031;-40
2024/02/07 10:13:59;;;;;;;2.92;2.15;;;9.70;99.90;;;;;;5044708;28;20036;-37
2024/02/07 10:16:27;;;;;;;5.47;2.55;;;9.50;99.90;;;;;;5043383;28;20534;-41
2024/02/07 10:18:53;;;;;;;2.97;2.20;;;9.40;99.90;;;;;;5028259;28;20052;-40
2024/02/07 10:21:19;;;;;;;4.88;1.73;;;9.40;99.90;;;;;;5035043;28;20091;-40
2024/02/07 10:23:44;;;;;;;3.40;2.33;;;9.50;99.90;;;;;;5046074;28;20429;-42
2024/02/07 10:26:13;;;;;;;5.15;2.08;;;9.70;99.90;;;;;;5036816;28;20605;-40
2024/02/07 10:28:38;;;;;;;;;;;9.80;99.90;;;;;;5044809;28;20032;-43
2024/02/07 10:31:05;;;;;;;4.63;2.15;;;9.70;99.90;;;;;;5043293;28;19917;-42
2024/02/07 10:33:34;;;;;;;3.50;2.00;;;9.80;99.90;;;;;;5045494;28;20512;-41
2024/02/07 10:36:01;;;;;;;3.83;3.00;;;9.60;99.90;;;;;;5041364;28;20041;-37
2024/02/07 10:38:32;;;;;;;3.67;1.98;;;9.70;99.90;;;;;;5049289;28;20039;-40
2024/02/07 10:41:00;;;;;;;4.40;2.40;;;9.60;99.90;;;;;;5028320;28;20615;-36
2024/02/07 10:43:38;;;;;;;3.00;2.17;;;9.50;99.90;;;;;;5049981;28;20661;-39
2024/02/07 10:46:06;;;;;;;2.83;2.20;;;9.50;99.90;;;;;;5041209;28;20035;-41
2024/02/07 10:48:33;;;;;;;11.68;2.35;;;9.50;99.90;;;;;;5042993;28;20375;-42
2024/02/07 10:50:58;;;;;;;2.90;1.75;;;9.60;99.90;;;;;;5045199;28;20049;-37
2024/02/07 10:53:31;;;;;;;4.93;1.98;;;9.50;99.90;;;;;;5031420;28;20486;-41
2024/02/07 10:55:57;;;;;;;2.55;1.83;;;9.50;99.90;;;;;;5040975;28;20036;-41
2024/02/07 10:58:26;;;;;;;3.72;1.95;;;9.50;99.90;;;;;;5045652;28;20037;-39
2024/02/07 11:00:54;;;;;;;3.58;1.75;;;9.60;99.90;;;;;;5042460;28;20036;-38
2024/02/07 11:03:21;;;;;;;4.75;2.45;;;9.50;99.90;;;;;;5039677;28;20041;-41
2024/02/07 11:05:51;;;;;;;5.95;2.15;;;9.50;99.90;;;;;;5045019;28;20043;-42
2024/02/07 11:08:18;;;;;;;2.92;1.90;;;9.60;99.90;;;;;;5042029;28;20383;-40
2024/02/07 11:10:47;;;;;;;2.92;2.10;;;9.70;99.90;;;;;;5046592;28;20056;-32
2024/02/07 11:13:13;;;;;;;4.13;2.25;;;9.60;99.90;;;;;;5044477;28;20036;-33
2024/02/07 11:15:40;;;;;;;4.80;2.00;;;9.50;99.90;;;;;;5046768;28;20021;-32
2024/02/07 11:18:07;;;;;;;5.18;2.25;;;9.50;99.90;;;;;;5028544;28;20375;-34
2024/02/07 11:20:34;;;;;;;3.20;2.72;;;9.60;99.90;;;;;;5045066;28;20505;-32
2024/02/07 11:23:06;;;;;;;2.53;1.67;;;9.60;99.90;;;;;;5028081;28;20044;-34
2024/02/07 11:25:34;;;;;;;3.72;1.90;;;9.60;99.90;;;;;;5039305;28;20534;-33
2024/02/07 11:28:01;;;;;;;3.38;1.88;;;9.60;99.90;;;;;;5030802;28;20028;-32
2024/02/07 11:30:30;;;;;;;2.50;1.75;;;9.60;99.90;;;;;;5026052;28;20037;-32
2024/02/07 11:32:56;;;;;;;2.72;1.83;;;9.60;99.90;;;;;;5043712;28;20442;-33
2024/02/07 11:35:22;;;;;;;3.83;2.30;;;9.60;99.90;;;;;;5049689;28;20048;-33
2024/02/07 11:37:49;;;;;;;2.13;1.80;;;9.60;99.90;;;;;;5046896;28;20059;-35
2024/02/07 11:40:15;;;;;;;2.58;2.38;;;9.60;99.90;;;;;;5041514;28;20045;-33
2024/02/07 11:42:42;;;;;;;3.78;2.00;;;9.60;99.90;;;;;;5044603;28;20037;-32
2024/02/07 11:45:15;;;;;;;2.22;1.90;;;9.60;99.90;;;;;;5047555;28;20029;-31
2024/02/07 11:47:44;;;;;;;3.92;1.77;;;9.60;99.90;;;;;;5041173;28;20493;-34
2024/02/07 11:50:17;;;;;;;3.75;2.22;;;9.60;99.90;;;;;;5043203;28;20082;-32
2024/02/07 11:52:49;;;;;;;3.00;2.17;;;9.60;99.90;;;;;;5044824;28;20091;-33
2024/02/07 11:55:17;;;;;;;2.78;2.25;;;9.70;99.90;;;;;;5043736;28;20047;-34
2024/02/07 11:57:45;;;;;;;7.35;2.50;;;9.70;99.90;;;;;;5021689;28;20493;-33
2024/02/07 12:00:22;;;;;;;3.60;2.38;;;9.60;99.90;;;;;;5033716;28;20026;-32
2024/02/07 12:02:50;;;;;;;5.00;1.93;;;9.60;99.90;;;;;;5029006;28;20029;-32
2024/02/07 12:05:17;;;;;;;3.50;1.90;;;9.60;99.90;;;;;;5047191;28;20040;-35
2024/02/07 12:07:43;;;;;;;2.20;2.00;;;9.70;99.90;;;;;;5039291;28;20075;-34
2024/02/07 12:10:10;;;;;;;3.05;2.25;;;9.70;99.90;;;;;;5049153;28;20016;-33
2024/02/07 12:12:36;;;;;;;5.75;2.38;;;9.80;99.90;;;;;;5030159;28;20029;-33
2024/02/07 12:15:03;;;;;;;1.92;1.70;;;9.80;99.90;;;;;;5053346;28;20036;-34
2024/02/07 12:17:31;;;;;;;3.33;2.08;;;9.70;99.90;;;;;;5042637;28;20033;-33
2024/02/07 12:19:58;;;;;;;3.53;2.03;;;9.70;99.90;;;;;;5042252;28;20560;-35
2024/02/07 12:22:25;;;;;;;3.90;1.95;;;9.70;99.90;;;;;;5026149;28;20035;-32
2024/02/07 12:24:52;;;;;;;3.63;1.90;;;9.70;99.90;;;;;;5033313;28;20687;-32
2024/02/07 12:27:17;;;;;;;5.43;3.13;;;9.60;99.90;;;;;;5025867;28;20078;-33
2024/02/07 12:29:57;;;;;;;4.18;2.35;;;9.70;99.90;;;;;;5051435;28;20021;-33
2024/02/07 12:32:24;;;;;;;2.85;1.83;;;9.80;99.90;;;;;;5020086;28;20033;-32
2024/02/07 12:34:50;;;;;;;2.63;1.65;;;9.80;99.90;;;;;;5027599;28;20103;-33
2024/02/07 12:37:21;;;;;;;2.65;2.30;;;9.80;99.90;;;;;;5045359;28;20499;-32
2024/02/07 12:39:48;;;;;;;5.60;2.08;;;9.80;99.90;;;;;;5017104;28;20079;-34
2024/02/07 12:42:16;;;;;;;4.60;2.30;;;9.80;99.90;;;;;;5028934;28;20043;-32
2024/02/07 12:44:42;;;;;;;2.57;2.20;;;9.80;99.90;;;;;;5027776;28;20087;-33
2024/02/07 12:47:11;;;;;;;3.58;1.67;;;9.80;99.90;;;;;;5047181;28;20036;-34
2024/02/07 12:49:37;;;;;;;3.40;1.95;;;9.80;99.90;;;;;;5050027;28;20032;-33
2024/02/07 12:52:03;;;;;;;2.78;1.70;;;9.80;99.90;;;;;;5029595;28;20120;-33
2024/02/07 12:54:29;;;;;;;3.47;2.40;;;9.80;99.90;;;;;;5037041;28;20087;-32
2024/02/07 12:56:55;;;;;;;5.78;2.88;;;9.90;99.90;;;;;;5023549;28;20853;-34
2024/02/07 12:59:29;;;;;;;3.05;1.80;;;9.90;99.90;;;;;;5045657;28;20031;-32
2024/02/07 13:01:55;;;;;;;5.55;1.75;;;9.90;99.90;;;;;;5041281;28;20068;-38
2024/02/07 13:04:21;;;;;;;3.88;2.25;;;9.90;99.90;;;;;;5044257;28;20668;-33
2024/02/07 13:06:47;;;;;;;2.42;1.90;;;9.90;99.90;;;;;;5029460;28;20017;-32
2024/02/07 13:09:13;;;;;;;2.75;2.50;;;9.90;99.90;;;;;;5048444;28;20059;-32
2024/02/07 13:11:39;;;;;;;1.90;1.80;;;9.80;99.90;;;;;;5044975;28;20087;-34
2024/02/07 13:14:05;;;;;;;4.78;2.30;;;9.80;99.90;;;;;;5030665;28;20466;-33
2024/02/07 13:16:34;;;;;;;1.50;1.40;;;9.80;99.90;;;;;;5031831;28;20052;-35
2024/02/07 13:19:00;;;;;;;2.70;2.08;;;9.80;99.90;;;;;;5031528;28;20032;-33
2024/02/07 13:21:26;;;;;;;2.25;1.92;;;9.80;99.90;;;;;;5043363;28;20037;-35
2024/02/07 13:23:52;;;;;;;5.65;2.35;;;9.80;99.90;;;;;;5026403;28;20053;-36
2024/02/07 13:26:24;;;;;;;3.30;1.70;;;9.80;99.90;;;;;;5043045;28;20060;-33
2024/02/07 13:28:53;;;;;;;3.42;1.95;;;9.80;99.90;;;;;;5042495;28;20053;-32
2024/02/07 13:31:20;;;;;;;2.60;1.65;;;9.80;99.50;;;;;;5040143;28;20079;-32
2024/02/07 13:33:45;;;;;;;2.45;1.67;;;9.90;99.90;;;;;;5044643;28;20032;-33
2024/02/07 13:36:11;;;;;;;2.90;1.98;;;9.80;99.90;;;;;;5030959;28;20151;-32
2024/02/07 13:38:40;;;;;;;2.42;2.00;;;9.80;99.90;;;;;;5043819;28;20078;-32
2024/02/07 13:41:06;;;;;;;2.25;1.77;;;9.90;99.90;;;;;;5020182;28;20033;-34
2024/02/07 13:43:31;;;;;;;1.60;1.50;;;9.90;99.90;;;;;;5046998;28;20509;-32
2024/02/07 13:45:57;;;;;;;3.47;1.80;;;9.90;99.90;;;;;;5051220;28;20099;-33
2024/02/07 13:48:28;;;;;;;2.08;1.50;;;9.80;99.90;;;;;;5042529;28;20036;-32
2024/02/07 13:50:54;;;;;;;2.55;1.35;;;9.90;99.90;;;;;;5026792;28;20013;-32
2024/02/07 13:53:20;;;;;;;2.25;1.98;;;9.90;99.90;;;;;;5034047;28;20116;-32
2024/02/07 13:55:45;;;;;;;4.13;2.00;;;9.90;99.90;;;;;;5041329;28;20124;-32
2024/02/07 13:58:11;;;;;;;2.95;1.88;;;9.90;99.90;;;;;;5043961;28;20103;-31
2024/02/07 14:00:37;;;;;;;2.25;1.83;;;9.90;99.90;;;;;;5045319;28;20028;-32